sensor_id;sensor_type;location;lat;lon;timestamp;pressure;altitude;pressure_sealevel;temperature;humidity
59757;BME280;45631;51.962;5.974;2022-09-21T00:01:38;102511.81;;;10.20;100.00
59757;BME280;45631;51.962;5.974;2022-09-21T00:04:07;102507.28;;;10.24;100.00
59757;BME280;45631;51.962;5.974;2022-09-21T00:06:35;102511.88;;;10.19;100.00
59757;BME280;45631;51.962;5.974;2022-09-21T00:09:05;102515.53;;;10.14;100.00
59757;BME280;45631;51.962;5.974;2022-09-21T00:11:35;102513.06;;;10.10;100.00
59757;BME280;45631;51.962;5.974;2022-09-21T00:14:06;102517.31;;;10.14;100.00
59757;BME280;45631;51.962;5.974;2022-09-21T00:16:38;102513.59;;;10.20;100.00
59757;BME280;45631;51.962;5.974;2022-09-21T00:19:07;102510.44;;;10.10;100.00
59757;BME280;45631;51.962;5.974;2022-09-21T00:21:36;102508.78;;;10.07;100.00
59757;BME280;45631;51.962;5.974;2022-09-21T00:24:06;102513.06;;;10.10;100.00
59757;BME280;45631;51.962;5.974;2022-09-21T00:26:36;102509.88;;;10.02;100.00
59757;BME280;45631;51.962;5.974;2022-09-21T00:29:05;102507.13;;;10.05;100.00
59757;BME280;45631;51.962;5.974;2022-09-21T00:31:38;102511.06;;;9.93;100.00
59757;BME280;45631;51.962;5.974;2022-09-21T00:34:07;102505.50;;;10.01;100.00
59757;BME280;45631;51.962;5.974;2022-09-21T00:36:35;102509.53;;;9.87;100.00
59757;BME280;45631;51.962;5.974;2022-09-21T00:39:04;102513.84;;;9.88;100.00
59757;BME280;45631;51.962;5.974;2022-09-21T00:41:33;102515.50;;;9.91;100.00
59757;BME280;45631;51.962;5.974;2022-09-21T00:44:35;102516.69;;;9.82;100.00
59757;BME280;45631;51.962;5.974;2022-09-21T00:47:08;102517.13;;;9.70;100.00
59757;BME280;45631;51.962;5.974;2022-09-21T00:49:37;102516.22;;;9.71;100.00
59757;BME280;45631;51.962;5.974;2022-09-21T00:52:09;102514.75;;;9.62;100.00
59757;BME280;45631;51.962;5.974;2022-09-21T00:54:44;102517.44;;;9.60;100.00
59757;BME280;45631;51.962;5.974;2022-09-21T00:57:14;102516.97;;;9.49;100.00
59757;BME280;45631;51.962;5.974;2022-09-21T00:59:44;102524.72;;;9.52;100.00
59757;BME280;45631;51.962;5.974;2022-09-21T01:02:14;102524.03;;;9.47;100.00
59757;BME280;45631;51.962;5.974;2022-09-21T01:04:43;102521.44;;;9.45;100.00
59757;BME280;45631;51.962;5.974;2022-09-21T01:07:15;102519.84;;;9.41;100.00
59757;BME280;45631;51.962;5.974;2022-09-21T01:09:47;102516.38;;;9.39;100.00
59757;BME280;45631;51.962;5.974;2022-09-21T01:12:28;102529.53;;;9.39;100.00
59757;BME280;45631;51.962;5.974;2022-09-21T01:15:17;102518.47;;;9.29;100.00
59757;BME280;45631;51.962;5.974;2022-09-21T01:17:53;102524.53;;;9.32;100.00
59757;BME280;45631;51.962;5.974;2022-09-21T01:20:54;102518.88;;;9.17;100.00
59757;BME280;45631;51.962;5.974;2022-09-21T01:26:31;102516.19;;;9.19;100.00
59757;BME280;45631;51.962;5.974;2022-09-21T01:29:14;102517.97;;;9.18;100.00
59757;BME280;45631;51.962;5.974;2022-09-21T01:31:47;102518.97;;;9.14;100.00
59757;BME280;45631;51.962;5.974;2022-09-21T01:34:23;102521.50;;;9.17;100.00
59757;BME280;45631;51.962;5.974;2022-09-21T01:36:57;102519.16;;;9.08;100.00
59757;BME280;45631;51.962;5.974;2022-09-21T01:39:26;102525.25;;;9.10;100.00
59757;BME280;45631;51.962;5.974;2022-09-21T01:41:58;102530.72;;;9.02;100.00
59757;BME280;45631;51.962;5.974;2022-09-21T01:44:30;102528.88;;;9.06;100.00
59757;BME280;45631;51.962;5.974;2022-09-21T01:47:01;102531.88;;;8.93;100.00
59757;BME280;45631;51.962;5.974;2022-09-21T01:49:34;102529.59;;;8.83;100.00
59757;BME280;45631;51.962;5.974;2022-09-21T01:52:06;102530.53;;;8.80;100.00
59757;BME280;45631;51.962;5.974;2022-09-21T01:54:42;102522.78;;;8.77;100.00
59757;BME280;45631;51.962;5.974;2022-09-21T01:57:17;102516.59;;;8.78;100.00
59757;BME280;45631;51.962;5.974;2022-09-21T01:59:53;102515.06;;;8.71;100.00
59757;BME280;45631;51.962;5.974;2022-09-21T02:02:27;102524.56;;;8.75;100.00
59757;BME280;45631;51.962;5.974;2022-09-21T02:04:59;102511.78;;;8.64;100.00
59757;BME280;45631;51.962;5.974;2022-09-21T02:07:33;102517.59;;;8.74;100.00
59757;BME280;45631;51.962;5.974;2022-09-21T02:10:02;102519.31;;;8.75;100.00
59757;BME280;45631;51.962;5.974;2022-09-21T02:12:31;102516.06;;;8.67;100.00
59757;BME280;45631;51.962;5.974;2022-09-21T02:15:01;102518.91;;;8.60;100.00
59757;BME280;45631;51.962;5.974;2022-09-21T02:17:35;102515.41;;;8.60;100.00
59757;BME280;45631;51.962;5.974;2022-09-21T02:20:17;102519.91;;;8.56;100.00
59757;BME280;45631;51.962;5.974;2022-09-21T02:22:56;102522.78;;;8.47;100.00
59757;BME280;45631;51.962;5.974;2022-09-21T02:25:34;102516.66;;;8.46;100.00
59757;BME280;45631;51.962;5.974;2022-09-21T02:28:07;102520.16;;;8.47;100.00
59757;BME280;45631;51.962;5.974;2022-09-21T02:30:46;102519.56;;;8.37;100.00
59757;BME280;45631;51.962;5.974;2022-09-21T02:33:23;102522.28;;;8.33;100.00
59757;BME280;45631;51.962;5.974;2022-09-21T02:35:58;102516.25;;;8.31;100.00
59757;BME280;45631;51.962;5.974;2022-09-21T02:38:34;102517.19;;;8.28;100.00
59757;BME280;45631;51.962;5.974;2022-09-21T02:41:07;102513.88;;;8.21;100.00
59757;BME280;45631;51.962;5.974;2022-09-21T02:43:42;102513.06;;;8.19;100.00
59757;BME280;45631;51.962;5.974;2022-09-21T02:46:17;102515.69;;;8.19;100.00
59757;BME280;45631;51.962;5.974;2022-09-21T02:48:48;102513.34;;;8.08;100.00
59757;BME280;45631;51.962;5.974;2022-09-21T02:51:21;102509.09;;;8.06;100.00
59757;BME280;45631;51.962;5.974;2022-09-21T02:53:52;102515.13;;;8.08;100.00
59757;BME280;45631;51.962;5.974;2022-09-21T02:56:22;102512.94;;;7.92;100.00
59757;BME280;45631;51.962;5.974;2022-09-21T02:58:53;102511.13;;;7.94;100.00
59757;BME280;45631;51.962;5.974;2022-09-21T03:01:27;102521.69;;;7.91;100.00
59757;BME280;45631;51.962;5.974;2022-09-21T03:03:56;102514.56;;;7.97;100.00
59757;BME280;45631;51.962;5.974;2022-09-21T03:06:25;102506.81;;;7.93;100.00
59757;BME280;45631;51.962;5.974;2022-09-21T03:08:53;102516.41;;;7.93;100.00
59757;BME280;45631;51.962;5.974;2022-09-21T03:11:23;102517.53;;;7.84;100.00
59757;BME280;45631;51.962;5.974;2022-09-21T03:13:52;102519.06;;;7.91;100.00
59757;BME280;45631;51.962;5.974;2022-09-21T03:16:20;102520.22;;;7.81;100.00
59757;BME280;45631;51.962;5.974;2022-09-21T03:18:53;102523.75;;;7.80;100.00
59757;BME280;45631;51.962;5.974;2022-09-21T03:21:21;102523.66;;;7.83;100.00
59757;BME280;45631;51.962;5.974;2022-09-21T03:23:50;102519.50;;;7.76;100.00
59757;BME280;45631;51.962;5.974;2022-09-21T03:26:18;102517.06;;;7.68;100.00
59757;BME280;45631;51.962;5.974;2022-09-21T03:28:48;102529.22;;;7.71;100.00
59757;BME280;45631;51.962;5.974;2022-09-21T03:31:16;102528.50;;;7.66;100.00
59757;BME280;45631;51.962;5.974;2022-09-21T03:33:44;102518.84;;;7.66;100.00
59757;BME280;45631;51.962;5.974;2022-09-21T03:36:14;102531.25;;;7.61;100.00
59757;BME280;45631;51.962;5.974;2022-09-21T03:38:42;102529.63;;;7.55;100.00
59757;BME280;45631;51.962;5.974;2022-09-21T03:41:12;102526.13;;;7.55;100.00
59757;BME280;45631;51.962;5.974;2022-09-21T03:43:41;102524.53;;;7.49;100.00
59757;BME280;45631;51.962;5.974;2022-09-21T03:46:09;102528.66;;;7.58;100.00
59757;BME280;45631;51.962;5.974;2022-09-21T03:48:37;102531.28;;;7.58;100.00
59757;BME280;45631;51.962;5.974;2022-09-21T03:51:06;102525.16;;;7.59;100.00
59757;BME280;45631;51.962;5.974;2022-09-21T03:53:35;102527.06;;;7.52;100.00
59757;BME280;45631;51.962;5.974;2022-09-21T03:56:04;102535.19;;;7.41;100.00
59757;BME280;45631;51.962;5.974;2022-09-21T03:58:32;102534.44;;;7.38;100.00
59757;BME280;45631;51.962;5.974;2022-09-21T04:01:00;102530.00;;;7.40;100.00
59757;BME280;45631;51.962;5.974;2022-09-21T04:03:29;102537.06;;;7.38;100.00
59757;BME280;45631;51.962;5.974;2022-09-21T04:05:57;102541.50;;;7.34;100.00
59757;BME280;45631;51.962;5.974;2022-09-21T04:08:25;102537.28;;;7.28;100.00
59757;BME280;45631;51.962;5.974;2022-09-21T04:10:54;102528.72;;;7.22;100.00
59757;BME280;45631;51.962;5.974;2022-09-21T04:13:23;102530.28;;;7.29;100.00
59757;BME280;45631;51.962;5.974;2022-09-21T04:15:51;102526.00;;;7.25;100.00
59757;BME280;45631;51.962;5.974;2022-09-21T04:18:21;102528.78;;;7.19;100.00
59757;BME280;45631;51.962;5.974;2022-09-21T04:20:50;102528.03;;;7.14;100.00
59757;BME280;45631;51.962;5.974;2022-09-21T04:23:18;102524.69;;;7.07;100.00
59757;BME280;45631;51.962;5.974;2022-09-21T04:25:47;102526.44;;;7.08;100.00
59757;BME280;45631;51.962;5.974;2022-09-21T04:28:18;102526.44;;;7.08;100.00
59757;BME280;45631;51.962;5.974;2022-09-21T04:30:46;102531.66;;;7.08;100.00
59757;BME280;45631;51.962;5.974;2022-09-21T04:33:14;102530.00;;;7.04;100.00
59757;BME280;45631;51.962;5.974;2022-09-21T04:35:42;102534.44;;;7.00;100.00
59757;BME280;45631;51.962;5.974;2022-09-21T04:38:13;102531.09;;;6.93;100.00
59757;BME280;45631;51.962;5.974;2022-09-21T04:40:42;102534.59;;;6.94;100.00
59757;BME280;45631;51.962;5.974;2022-09-21T04:43:10;102537.13;;;6.97;100.00
59757;BME280;45631;51.962;5.974;2022-09-21T04:45:39;102538.75;;;7.03;100.00
59757;BME280;45631;51.962;5.974;2022-09-21T04:48:07;102540.63;;;6.96;100.00
59757;BME280;45631;51.962;5.974;2022-09-21T04:50:36;102539.09;;;6.87;100.00
59757;BME280;45631;51.962;5.974;2022-09-21T04:53:05;102543.41;;;6.90;100.00
59757;BME280;45631;51.962;5.974;2022-09-21T04:55:33;102543.56;;;6.82;100.00
59757;BME280;45631;51.962;5.974;2022-09-21T04:58:01;102545.34;;;6.80;100.00
59757;BME280;45631;51.962;5.974;2022-09-21T05:00:29;102544.63;;;6.73;100.00
59757;BME280;45631;51.962;5.974;2022-09-21T05:02:58;102543.78;;;6.73;100.00
59757;BME280;45631;51.962;5.974;2022-09-21T05:05:26;102553.41;;;6.71;100.00
59757;BME280;45631;51.962;5.974;2022-09-21T05:07:54;102550.63;;;6.79;100.00
59757;BME280;45631;51.962;5.974;2022-09-21T05:10:23;102558.44;;;6.80;100.00
59757;BME280;45631;51.962;5.974;2022-09-21T05:12:50;102563.53;;;6.86;100.00
59757;BME280;45631;51.962;5.974;2022-09-21T05:15:18;102565.53;;;6.73;100.00
59757;BME280;45631;51.962;5.974;2022-09-21T05:17:47;102570.69;;;6.78;100.00
59757;BME280;45631;51.962;5.974;2022-09-21T05:20:17;102567.19;;;6.79;100.00
59757;BME280;45631;51.962;5.974;2022-09-21T05:22:45;102567.28;;;6.74;100.00
59757;BME280;45631;51.962;5.974;2022-09-21T05:25:13;102572.56;;;6.71;100.00
59757;BME280;45631;51.962;5.974;2022-09-21T05:27:41;102566.41;;;6.74;100.00
59757;BME280;45631;51.962;5.974;2022-09-21T05:30:10;102573.66;;;6.63;100.00
59757;BME280;45631;51.962;5.974;2022-09-21T05:32:44;102577.00;;;6.68;100.00
59757;BME280;45631;51.962;5.974;2022-09-21T05:35:24;102577.91;;;6.65;100.00
59757;BME280;45631;51.962;5.974;2022-09-21T05:38:00;102572.66;;;6.68;100.00
59757;BME280;45631;51.962;5.974;2022-09-21T05:40:31;102577.84;;;6.70;100.00
59757;BME280;45631;51.962;5.974;2022-09-21T05:43:01;102580.44;;;6.70;100.00
59757;BME280;45631;51.962;5.974;2022-09-21T05:45:32;102577.81;;;6.71;100.00
59757;BME280;45631;51.962;5.974;2022-09-21T05:48:07;102583.84;;;6.73;100.00
59757;BME280;45631;51.962;5.974;2022-09-21T05:50:49;102580.53;;;6.67;100.00
59757;BME280;45631;51.962;5.974;2022-09-21T05:56:19;102584.94;;;6.63;100.00
59757;BME280;45631;51.962;5.974;2022-09-21T05:58:56;102592.03;;;6.58;100.00
59757;BME280;45631;51.962;5.974;2022-09-21T06:01:37;102588.56;;;6.57;100.00
59757;BME280;45631;51.962;5.974;2022-09-21T06:04:09;102596.28;;;6.62;100.00
59757;BME280;45631;51.962;5.974;2022-09-21T06:06:40;102595.38;;;6.65;100.00
59757;BME280;45631;51.962;5.974;2022-09-21T06:09:08;102596.38;;;6.59;100.00
59757;BME280;45631;51.962;5.974;2022-09-21T06:11:36;102596.25;;;6.64;100.00
59757;BME280;45631;51.962;5.974;2022-09-21T06:14:04;102603.91;;;6.73;100.00
59757;BME280;45631;51.962;5.974;2022-09-21T06:16:36;102608.41;;;6.66;100.00
59757;BME280;45631;51.962;5.974;2022-09-21T06:19:05;102613.63;;;6.66;100.00
59757;BME280;45631;51.962;5.974;2022-09-21T06:21:33;102609.28;;;6.65;100.00
59757;BME280;45631;51.962;5.974;2022-09-21T06:24:03;102615.28;;;6.70;100.00
59757;BME280;45631;51.962;5.974;2022-09-21T06:26:31;102614.25;;;6.79;100.00
59757;BME280;45631;51.962;5.974;2022-09-21T06:28:59;102617.28;;;7.01;100.00
59757;BME280;45631;51.962;5.974;2022-09-21T06:31:27;102619.00;;;7.02;100.00
59757;BME280;45631;51.962;5.974;2022-09-21T06:33:55;102618.84;;;7.08;100.00
59757;BME280;45631;51.962;5.974;2022-09-21T06:36:23;102618.66;;;7.18;100.00
59757;BME280;45631;51.962;5.974;2022-09-21T06:38:51;102619.41;;;7.23;100.00
59757;BME280;45631;51.962;5.974;2022-09-21T06:41:21;102617.53;;;7.30;100.00
59757;BME280;45631;51.962;5.974;2022-09-21T06:43:52;102615.47;;;7.42;100.00
59757;BME280;45631;51.962;5.974;2022-09-21T06:46:21;102614.50;;;7.47;100.00
59757;BME280;45631;51.962;5.974;2022-09-21T06:48:49;102619.38;;;7.60;100.00
59757;BME280;45631;51.962;5.974;2022-09-21T06:51:17;102616.63;;;7.67;100.00
59757;BME280;45631;51.962;5.974;2022-09-21T06:53:47;102619.09;;;7.73;100.00
59757;BME280;45631;51.962;5.974;2022-09-21T06:56:15;102622.31;;;7.84;100.00
59757;BME280;45631;51.962;5.974;2022-09-21T06:58:44;102620.19;;;7.99;100.00
59757;BME280;45631;51.962;5.974;2022-09-21T07:01:14;102617.25;;;8.11;100.00
59757;BME280;45631;51.962;5.974;2022-09-21T07:03:43;102608.03;;;8.29;100.00
59757;BME280;45631;51.962;5.974;2022-09-21T07:06:11;102617.31;;;8.41;100.00
59757;BME280;45631;51.962;5.974;2022-09-21T07:08:41;102609.88;;;8.58;100.00
59757;BME280;45631;51.962;5.974;2022-09-21T07:11:30;102619.78;;;8.78;100.00
59757;BME280;45631;51.962;5.974;2022-09-21T07:13:59;102615.69;;;8.98;100.00
59757;BME280;45631;51.962;5.974;2022-09-21T07:16:29;102619.34;;;9.22;100.00
59757;BME280;45631;51.962;5.974;2022-09-21T07:18:59;102615.22;;;9.42;100.00
59757;BME280;45631;51.962;5.974;2022-09-21T07:21:37;102620.00;;;9.57;100.00
59757;BME280;45631;51.962;5.974;2022-09-21T07:24:05;102615.59;;;9.85;100.00
59757;BME280;45631;51.962;5.974;2022-09-21T07:26:38;102617.31;;;10.11;100.00
59757;BME280;45631;51.962;5.974;2022-09-21T07:29:07;102614.06;;;10.28;100.00
59757;BME280;45631;51.962;5.974;2022-09-21T07:31:36;102613.78;;;10.37;100.00
59757;BME280;45631;51.962;5.974;2022-09-21T07:34:04;102619.56;;;10.47;100.00
59757;BME280;45631;51.962;5.974;2022-09-21T07:36:32;102623.06;;;10.71;100.00
59757;BME280;45631;51.962;5.974;2022-09-21T07:39:00;102618.22;;;10.84;100.00
59757;BME280;45631;51.962;5.974;2022-09-21T07:41:29;102617.00;;;11.15;100.00
59757;BME280;45631;51.962;5.974;2022-09-21T07:43:57;102607.13;;;11.44;100.00
59757;BME280;45631;51.962;5.974;2022-09-21T07:46:26;102609.28;;;11.55;100.00
59757;BME280;45631;51.962;5.974;2022-09-21T07:48:55;102617.63;;;11.66;100.00
59757;BME280;45631;51.962;5.974;2022-09-21T07:51:23;102616.66;;;11.89;100.00
59757;BME280;45631;51.962;5.974;2022-09-21T07:53:54;102613.53;;;12.02;100.00
59757;BME280;45631;51.962;5.974;2022-09-21T07:56:24;102602.38;;;12.15;100.00
59757;BME280;45631;51.962;5.974;2022-09-21T07:58:52;102604.31;;;12.31;100.00
59757;BME280;45631;51.962;5.974;2022-09-21T08:01:37;102609.28;;;12.58;100.00
59757;BME280;45631;51.962;5.974;2022-09-21T08:04:07;102610.94;;;12.98;100.00
59757;BME280;45631;51.962;5.974;2022-09-21T08:06:36;102605.13;;;13.09;100.00
59757;BME280;45631;51.962;5.974;2022-09-21T08:09:06;102615.41;;;13.15;100.00
59757;BME280;45631;51.962;5.974;2022-09-21T08:11:34;102610.38;;;13.28;100.00
59757;BME280;45631;51.962;5.974;2022-09-21T08:14:03;102609.22;;;13.53;100.00
59757;BME280;45631;51.962;5.974;2022-09-21T08:16:31;102607.66;;;13.66;100.00
59757;BME280;45631;51.962;5.974;2022-09-21T08:19:03;102608.78;;;13.80;100.00
59757;BME280;45631;51.962;5.974;2022-09-21T08:21:31;102609.72;;;14.12;100.00
59757;BME280;45631;51.962;5.974;2022-09-21T08:24:00;102606.44;;;14.25;100.00
59757;BME280;45631;51.962;5.974;2022-09-21T08:26:28;102606.41;;;14.42;100.00
59757;BME280;45631;51.962;5.974;2022-09-21T08:28:56;102605.34;;;14.62;100.00
59757;BME280;45631;51.962;5.974;2022-09-21T08:31:24;102610.84;;;14.75;100.00
59757;BME280;45631;51.962;5.974;2022-09-21T08:33:53;102622.22;;;14.93;99.20
59757;BME280;45631;51.962;5.974;2022-09-21T08:36:25;102615.53;;;14.86;100.00
59757;BME280;45631;51.962;5.974;2022-09-21T08:38:53;102614.09;;;14.96;98.03
59757;BME280;45631;51.962;5.974;2022-09-21T08:41:25;102610.25;;;15.18;98.24
59757;BME280;45631;51.962;5.974;2022-09-21T08:44:08;102617.22;;;15.35;96.21
59757;BME280;45631;51.962;5.974;2022-09-21T08:46:39;102611.28;;;15.62;94.63
59757;BME280;45631;51.962;5.974;2022-09-21T08:49:11;102602.06;;;15.53;93.11
59757;BME280;45631;51.962;5.974;2022-09-21T08:51:46;102612.50;;;15.70;95.22
59757;BME280;45631;51.962;5.974;2022-09-21T08:54:20;102614.69;;;15.64;91.84
59757;BME280;45631;51.962;5.974;2022-09-21T08:56:52;102610.88;;;15.84;92.97
59757;BME280;45631;51.962;5.974;2022-09-21T08:59:32;102617.19;;;16.12;89.59
59757;BME280;45631;51.962;5.974;2022-09-21T09:02:07;102618.41;;;16.20;89.20
59757;BME280;45631;51.962;5.974;2022-09-21T09:04:52;102615.50;;;16.39;85.22
59757;BME280;45631;51.962;5.974;2022-09-21T09:07:44;102628.56;;;16.57;80.19
59757;BME280;45631;51.962;5.974;2022-09-21T09:10:26;102620.03;;;16.66;83.22
59757;BME280;45631;51.962;5.974;2022-09-21T09:13:07;102619.25;;;16.79;82.99
59757;BME280;45631;51.962;5.974;2022-09-21T09:16:02;102626.72;;;17.01;82.37
59757;BME280;45631;51.962;5.974;2022-09-21T09:18:40;102625.28;;;17.10;81.78
59757;BME280;45631;51.962;5.974;2022-09-21T09:21:12;102629.25;;;17.17;80.46
59757;BME280;45631;51.962;5.974;2022-09-21T09:24:00;102633.84;;;17.55;80.61
59757;BME280;45631;51.962;5.974;2022-09-21T09:26:32;102634.09;;;17.65;79.13
59757;BME280;45631;51.962;5.974;2022-09-21T09:29:09;102635.91;;;17.64;77.39
59757;BME280;45631;51.962;5.974;2022-09-21T09:31:39;102632.81;;;17.70;75.51
59757;BME280;45631;51.962;5.974;2022-09-21T09:34:10;102627.00;;;17.91;74.62
59757;BME280;45631;51.962;5.974;2022-09-21T09:36:43;102631.09;;;18.10;74.63
59757;BME280;45631;51.962;5.974;2022-09-21T09:39:27;102623.44;;;18.18;72.50
59757;BME280;45631;51.962;5.974;2022-09-21T09:42:16;102621.06;;;18.39;73.35
59757;BME280;45631;51.962;5.974;2022-09-21T09:45:23;102625.94;;;18.58;70.00
59757;BME280;45631;51.962;5.974;2022-09-21T09:48:05;102620.59;;;18.58;69.89
59757;BME280;45631;51.962;5.974;2022-09-21T09:50:38;102617.59;;;18.75;67.69
59757;BME280;45631;51.962;5.974;2022-09-21T09:53:11;102613.00;;;19.15;64.92
59757;BME280;45631;51.962;5.974;2022-09-21T09:55:42;102616.75;;;19.36;64.52
59757;BME280;45631;51.962;5.974;2022-09-21T09:58:17;102613.16;;;19.49;59.16
59757;BME280;45631;51.962;5.974;2022-09-21T10:00:49;102615.97;;;19.58;60.70
59757;BME280;45631;51.962;5.974;2022-09-21T10:03:20;102619.44;;;19.48;60.00
59757;BME280;45631;51.962;5.974;2022-09-21T10:05:49;102619.22;;;19.51;59.28
59757;BME280;45631;51.962;5.974;2022-09-21T10:08:29;102616.25;;;19.31;58.73
59757;BME280;45631;51.962;5.974;2022-09-21T10:10:59;102614.91;;;19.72;59.47
59757;BME280;45631;51.962;5.974;2022-09-21T10:13:30;102615.34;;;19.55;57.05
59757;BME280;45631;51.962;5.974;2022-09-21T10:16:01;102604.16;;;18.90;58.14
59757;BME280;45631;51.962;5.974;2022-09-21T10:18:34;102610.34;;;18.78;59.45
59757;BME280;45631;51.962;5.974;2022-09-21T10:21:06;102609.16;;;18.82;60.28
59757;BME280;45631;51.962;5.974;2022-09-21T10:23:36;102604.25;;;18.75;59.74
59757;BME280;45631;51.962;5.974;2022-09-21T10:26:08;102605.09;;;18.89;59.92
59757;BME280;45631;51.962;5.974;2022-09-21T10:28:54;102598.38;;;18.83;59.61
59757;BME280;45631;51.962;5.974;2022-09-21T10:31:24;102603.41;;;19.12;60.78
59757;BME280;45631;51.962;5.974;2022-09-21T10:34:05;102600.84;;;19.70;56.30
59757;BME280;45631;51.962;5.974;2022-09-21T10:36:35;102598.53;;;20.24;57.04
59757;BME280;45631;51.962;5.974;2022-09-21T10:39:26;102597.53;;;19.91;55.75
59757;BME280;45631;51.962;5.974;2022-09-21T10:42:01;102595.31;;;19.85;52.87
59757;BME280;45631;51.962;5.974;2022-09-21T10:44:40;102592.66;;;19.85;55.09
59757;BME280;45631;51.962;5.974;2022-09-21T10:47:15;102589.69;;;19.30;55.80
59757;BME280;45631;51.962;5.974;2022-09-21T10:49:47;102592.72;;;19.01;55.81
59757;BME280;45631;51.962;5.974;2022-09-21T10:52:17;102587.59;;;19.22;55.76
59757;BME280;45631;51.962;5.974;2022-09-21T10:54:48;102587.25;;;19.02;58.14
59757;BME280;45631;51.962;5.974;2022-09-21T10:57:21;102594.34;;;18.90;55.95
59757;BME280;45631;51.962;5.974;2022-09-21T10:59:50;102586.78;;;18.71;54.63
59757;BME280;45631;51.962;5.974;2022-09-21T11:02:25;102592.53;;;18.28;56.71
59757;BME280;45631;51.962;5.974;2022-09-21T11:04:59;102590.28;;;18.09;57.63
59757;BME280;45631;51.962;5.974;2022-09-21T11:07:32;102588.25;;;17.74;55.94
59757;BME280;45631;51.962;5.974;2022-09-21T11:10:09;102588.06;;;18.03;59.77
59757;BME280;45631;51.962;5.974;2022-09-21T11:12:48;102589.25;;;17.99;61.31
59757;BME280;45631;51.962;5.974;2022-09-21T11:15:37;102584.13;;;18.71;56.58
59757;BME280;45631;51.962;5.974;2022-09-21T11:18:15;102581.03;;;19.50;54.31
59757;BME280;45631;51.962;5.974;2022-09-21T11:20:51;102583.16;;;19.34;53.14
59757;BME280;45631;51.962;5.974;2022-09-21T11:23:37;102584.09;;;19.68;52.65
59757;BME280;45631;51.962;5.974;2022-09-21T11:26:13;102579.09;;;20.10;49.39
59757;BME280;45631;51.962;5.974;2022-09-21T11:28:50;102585.41;;;20.55;47.18
59757;BME280;45631;51.962;5.974;2022-09-21T11:31:34;102569.31;;;20.89;46.19
59757;BME280;45631;51.962;5.974;2022-09-21T11:34:15;102573.72;;;20.56;45.14
59757;BME280;45631;51.962;5.974;2022-09-21T11:36:55;102570.34;;;20.20;44.24
59757;BME280;45631;51.962;5.974;2022-09-21T11:39:35;102570.97;;;20.12;46.62
59757;BME280;45631;51.962;5.974;2022-09-21T11:42:16;102566.00;;;19.96;45.31
59757;BME280;45631;51.962;5.974;2022-09-21T11:44:52;102568.13;;;19.80;47.47
59757;BME280;45631;51.962;5.974;2022-09-21T11:47:34;102560.63;;;20.19;46.69
59757;BME280;45631;51.962;5.974;2022-09-21T11:53:25;102561.19;;;21.23;43.05
59757;BME280;45631;51.962;5.974;2022-09-21T11:56:14;102565.19;;;21.71;42.09
59757;BME280;45631;51.962;5.974;2022-09-21T11:59:00;102558.22;;;22.20;41.12
59757;BME280;45631;51.962;5.974;2022-09-21T12:01:45;102549.09;;;22.83;39.60
59757;BME280;45631;51.962;5.974;2022-09-21T12:04:28;102552.75;;;22.22;37.67
59757;BME280;45631;51.962;5.974;2022-09-21T12:07:06;102546.19;;;21.53;40.34
59757;BME280;45631;51.962;5.974;2022-09-21T12:12:48;102534.16;;;20.93;40.22
59757;BME280;45631;51.962;5.974;2022-09-21T12:15:24;102538.81;;;20.91;39.93
59757;BME280;45631;51.962;5.974;2022-09-21T12:18:04;102535.47;;;20.55;42.54
59757;BME280;45631;51.962;5.974;2022-09-21T12:20:45;102539.28;;;20.19;43.08
59757;BME280;45631;51.962;5.974;2022-09-21T12:23:25;102530.06;;;20.00;44.43
59757;BME280;45631;51.962;5.974;2022-09-21T12:25:57;102526.38;;;20.35;45.25
59757;BME280;45631;51.962;5.974;2022-09-21T12:28:30;102530.91;;;20.01;43.93
59757;BME280;45631;51.962;5.974;2022-09-21T12:31:03;102530.78;;;20.14;43.92
59757;BME280;45631;51.962;5.974;2022-09-21T12:33:37;102526.38;;;19.79;44.19
59757;BME280;45631;51.962;5.974;2022-09-21T12:36:12;102533.13;;;19.60;46.14
59757;BME280;45631;51.962;5.974;2022-09-21T12:38:50;102522.84;;;19.55;46.55
59757;BME280;45631;51.962;5.974;2022-09-21T12:41:25;102527.16;;;19.56;46.11
59757;BME280;45631;51.962;5.974;2022-09-21T12:44:02;102521.31;;;19.29;45.41
59757;BME280;45631;51.962;5.974;2022-09-21T12:46:36;102513.94;;;19.43;45.96
59757;BME280;45631;51.962;5.974;2022-09-21T12:49:11;102516.25;;;19.48;44.73
59757;BME280;45631;51.962;5.974;2022-09-21T12:51:42;102518.78;;;19.38;44.83
59757;BME280;45631;51.962;5.974;2022-09-21T12:54:18;102520.25;;;19.42;43.26
59757;BME280;45631;51.962;5.974;2022-09-21T12:56:58;102508.59;;;19.32;42.27
59757;BME280;45631;51.962;5.974;2022-09-21T12:59:57;102505.16;;;19.30;45.54
59757;BME280;45631;51.962;5.974;2022-09-21T13:02:33;102506.03;;;19.31;44.41
59757;BME280;45631;51.962;5.974;2022-09-21T13:05:06;102499.69;;;19.20;43.85
59757;BME280;45631;51.962;5.974;2022-09-21T13:08:00;102496.75;;;19.12;43.22
59757;BME280;45631;51.962;5.974;2022-09-21T13:10:40;102496.28;;;19.65;43.72
59757;BME280;45631;51.962;5.974;2022-09-21T13:13:25;102496.28;;;19.65;43.39
59757;BME280;45631;51.962;5.974;2022-09-21T13:15:55;102488.78;;;19.82;44.58
59757;BME280;45631;51.962;5.974;2022-09-21T13:18:26;102493.47;;;19.78;43.33
59757;BME280;45631;51.962;5.974;2022-09-21T13:21:14;102495.66;;;20.41;44.45
59757;BME280;45631;51.962;5.974;2022-09-21T13:23:52;102499.00;;;20.98;41.38
59757;BME280;45631;51.962;5.974;2022-09-21T13:26:33;102492.53;;;21.12;39.69
59757;BME280;45631;51.962;5.974;2022-09-21T13:29:36;102486.78;;;21.59;40.82
59757;BME280;45631;51.962;5.974;2022-09-21T13:32:21;102487.16;;;21.33;41.25